Time;durP1;ratioP1;P1;durP2;ratioP2;P2;SDS_P1;SDS_P2;PMS_P1;PMS_P2;Temp;Humidity;BMP_temperature;BMP_pressure;BME280_temperature;BME280_humidity;BME280_pressure;Samples;Min_cycle;Max_cycle;Signal;HPM_P1;HPM_P2
2020/12/01 00:03:25;;;;;;;42.40;23.93;;;-0.50;92.00;;;;;;3568296;40;20842;-86
2020/12/01 00:05:51;;;;;;;30.60;18.50;;;-0.50;93.00;;;;;;3601904;32;20563;-81
2020/12/01 00:08:18;;;;;;;23.13;14.80;;;-0.20;93.60;;;;;;3568484;32;20601;-81
2020/12/01 00:10:44;;;;;;;36.17;18.33;;;-0.10;92.20;;;;;;3568431;40;20230;-81
2020/12/01 00:13:12;;;;;;;31.47;17.17;;;0.20;92.20;;;;;;3568152;40;20253;-80
2020/12/01 00:15:39;;;;;;;18.87;12.37;;;0.00;92.20;;;;;;3567697;32;23576;-81
2020/12/01 00:18:05;;;;;;;21.33;13.63;;;0.00;91.20;;;;;;3571143;40;20226;-81
2020/12/01 00:20:32;;;;;;;24.80;13.93;;;-0.20;91.70;;;;;;3568143;40;20612;-81
2020/12/01 00:22:59;;;;;;;21.80;12.90;;;-0.30;91.90;;;;;;3570782;32;20599;-81
2020/12/01 00:25:26;;;;;;;20.97;13.10;;;-0.20;92.10;;;;;;3568648;40;20262;-81
2020/12/01 00:27:52;;;;;;;20.70;12.87;;;-0.50;91.30;;;;;;3568440;32;20234;-82
2020/12/01 00:30:21;;;;;;;17.20;11.27;;;-0.40;92.90;;;;;;3568473;32;20248;-81
2020/12/01 00:32:48;;;;;;;20.53;12.00;;;-0.70;91.70;;;;;;3574044;32;20514;-81
2020/12/01 00:35:17;;;;;;;23.83;12.77;;;-0.90;91.90;;;;;;3568733;32;20230;-81
2020/12/01 00:37:44;;;;;;;26.80;15.53;;;-0.90;93.80;;;;;;3570780;32;20250;-81
2020/12/01 00:40:11;;;;;;;17.67;11.60;;;-0.50;93.90;;;;;;3567482;32;20704;-81
2020/12/01 00:42:37;;;;;;;18.00;11.63;;;-0.10;91.90;;;;;;3580255;32;20256;-81
2020/12/01 00:45:05;;;;;;;17.00;11.30;;;-0.30;90.90;;;;;;3577857;32;20240;-81
2020/12/01 00:47:32;;;;;;;17.97;11.37;;;-0.60;91.20;;;;;;3578585;32;20241;-81
2020/12/01 00:49:58;;;;;;;20.17;11.53;;;-0.80;91.60;;;;;;3568901;40;20238;-81
2020/12/01 00:52:24;;;;;;;20.83;12.10;;;-0.90;92.10;;;;;;3570558;40;20233;-81
2020/12/01 00:54:52;;;;;;;21.33;12.53;;;-1.00;92.70;;;;;;3569878;32;20230;-81
2020/12/01 00:57:18;;;;;;;25.20;16.77;;;-1.10;93.10;;;;;;3568622;32;20239;-81
2020/12/01 01:02:12;;;;;;;28.50;15.83;;;-0.30;94.00;;;;;;3567747;40;20261;-81
2020/12/01 01:04:39;;;;;;;18.33;11.70;;;0.30;92.70;;;;;;3569426;40;20272;-81
2020/12/01 01:07:05;;;;;;;19.40;12.77;;;0.20;90.50;;;;;;3571765;32;20233;-81
2020/12/01 01:09:31;;;;;;;22.17;13.30;;;0.00;91.00;;;;;;3568357;32;20289;-81
2020/12/01 01:11:58;;;;;;;23.67;13.77;;;0.10;91.60;;;;;;3568833;32;20246;-81
2020/12/01 01:14:25;;;;;;;20.50;12.70;;;0.60;91.50;;;;;;3560313;40;20255;-82
2020/12/01 01:16:51;;;;;;;24.03;13.77;;;0.70;90.60;;;;;;3560786;32;20234;-81
2020/12/01 01:19:18;;;;;;;22.30;14.40;;;0.80;90.30;;;;;;3558389;40;20684;-81
2020/12/01 01:21:46;;;;;;;23.03;14.07;;;1.00;89.20;;;;;;3560697;32;20234;-82
2020/12/01 01:24:14;;;;;;;32.83;19.77;;;0.90;89.10;;;;;;3558650;40;20312;-82
2020/12/01 01:26:41;;;;;;;28.00;17.57;;;0.90;90.40;;;;;;3560464;40;20246;-82
2020/12/01 01:29:08;;;;;;;15.67;11.67;;;0.90;87.70;;;;;;3558529;32;20250;-81
2020/12/01 01:31:35;;;;;;;30.67;18.73;;;0.40;86.10;;;;;;3567345;32;21079;-82
2020/12/01 01:34:01;;;;;;;29.57;17.10;;;0.20;91.40;;;;;;3560227;32;20745;-82
2020/12/01 01:36:32;;;;;;;21.70;13.67;;;0.20;90.40;;;;;;3560393;32;20277;-81
2020/12/01 01:38:58;;;;;;;19.53;12.50;;;0.10;90.20;;;;;;3561078;32;20242;-82
2020/12/01 01:41:25;;;;;;;18.37;11.70;;;-0.10;89.70;;;;;;3570547;32;20239;-82
2020/12/01 01:43:51;;;;;;;23.70;14.03;;;-0.40;90.70;;;;;;3568094;40;20238;-82
2020/12/01 01:46:37;;;;;;;24.07;13.77;;;-0.60;91.20;;;;;;3570600;33;20315;-81
2020/12/01 01:49:07;;;;;;;18.90;11.97;;;-0.60;91.80;;;;;;3567799;32;20302;-81
2020/12/01 01:51:36;;;;;;;22.83;13.17;;;-0.70;91.20;;;;;;3572716;32;20367;-81
2020/12/01 01:54:03;;;;;;;20.53;13.23;;;-1.00;91.80;;;;;;3572794;33;20230;-82
2020/12/01 01:56:34;;;;;;;22.20;13.10;;;-0.90;92.20;;;;;;3572575;32;20225;-81
2020/12/01 02:01:31;;;;;;;19.30;11.50;;;-1.00;92.60;;;;;;3569455;40;20356;-83
2020/12/01 02:03:59;;;;;;;19.20;11.43;;;-1.10;91.80;;;;;;3570915;32;20249;-81
2020/12/01 02:06:28;;;;;;;20.50;11.33;;;-1.30;92.40;;;;;;3581655;32;23056;-89
2020/12/01 02:08:58;;;;;;;18.27;11.53;;;-1.40;92.80;;;;;;3580510;40;20239;-82
2020/12/01 02:11:26;;;;;;;16.93;11.23;;;-1.60;93.50;;;;;;3572892;33;20260;-82
2020/12/01 02:14:03;;;;;;;20.43;12.43;;;-1.50;93.70;;;;;;3569836;40;20263;-82
2020/12/01 02:16:29;;;;;;;20.83;11.67;;;-1.60;93.70;;;;;;3570043;40;20649;-82
2020/12/01 02:18:56;;;;;;;19.67;12.07;;;-1.40;94.50;;;;;;3571936;32;20245;-85
2020/12/01 02:21:30;;;;;;;17.77;11.80;;;-1.20;94.00;;;;;;3572465;40;20254;-83
2020/12/01 02:23:58;;;;;;;21.60;13.50;;;-1.00;93.80;;;;;;3598069;32;20482;-82
2020/12/01 02:26:25;;;;;;;18.40;11.80;;;-0.80;93.80;;;;;;3570023;32;20255;-82
2020/12/01 02:28:52;;;;;;;17.43;11.37;;;-0.70;92.70;;;;;;3569853;40;20751;-82
2020/12/01 02:31:19;;;;;;;19.40;11.83;;;-0.60;92.50;;;;;;3570451;40;20279;-82
2020/12/01 02:33:45;;;;;;;19.97;12.70;;;-0.60;92.40;;;;;;3572829;32;20234;-82
2020/12/01 02:36:11;;;;;;;18.30;11.23;;;-0.70;92.50;;;;;;3569767;32;20248;-82
2020/12/01 02:38:38;;;;;;;18.70;11.30;;;-0.70;92.30;;;;;;3572364;32;20610;-82
2020/12/01 02:41:04;;;;;;;19.53;12.07;;;-0.60;92.30;;;;;;3570523;32;20242;-82
2020/12/01 02:43:31;;;;;;;17.13;11.00;;;-0.60;92.10;;;;;;3570296;32;20234;-82
2020/12/01 02:45:58;;;;;;;22.10;11.77;;;-0.50;92.00;;;;;;3569851;32;20259;-82
2020/12/01 02:48:25;;;;;;;19.73;11.80;;;-0.50;92.60;;;;;;3570036;32;20607;-82
2020/12/01 02:50:51;;;;;;;17.97;11.77;;;-0.60;91.70;;;;;;3569927;32;20770;-83
2020/12/01 02:53:18;;;;;;;19.40;12.20;;;-0.50;92.30;;;;;;3572587;32;20245;-82
2020/12/01 02:55:45;;;;;;;20.83;11.90;;;-0.50;92.10;;;;;;3579926;40;20237;-82
2020/12/01 02:58:11;;;;;;;22.50;12.20;;;-0.50;92.40;;;;;;3581690;40;20252;-82
2020/12/01 03:00:38;;;;;;;21.37;13.13;;;-0.50;92.30;;;;;;3990104;34;20207;-82
2020/12/01 03:03:05;;;;;;;20.07;12.17;;;-0.50;92.00;;;;;;3590896;40;20217;-83
2020/12/01 03:05:31;;;;;;;17.97;11.90;;;-0.50;92.20;;;;;;3589448;40;20267;-83
2020/12/01 03:07:58;;;;;;;19.37;11.77;;;-0.40;91.90;;;;;;3579757;32;20242;-83
2020/12/01 03:10:24;;;;;;;16.77;11.30;;;-0.50;91.90;;;;;;3578060;40;20275;-83
2020/12/01 03:12:50;;;;;;;18.50;11.83;;;-0.70;91.50;;;;;;3579920;32;20261;-82
2020/12/01 03:15:18;;;;;;;18.47;11.47;;;-1.00;92.00;;;;;;3578113;40;20234;-83
2020/12/01 03:17:45;;;;;;;19.10;12.30;;;-1.20;92.40;;;;;;3582365;32;20237;-83
2020/12/01 03:20:12;;;;;;;19.47;11.73;;;-1.30;93.20;;;;;;3597386;32;20249;-83
2020/12/01 03:22:38;;;;;;;19.30;12.17;;;-1.10;93.80;;;;;;3587382;33;20259;-83
2020/12/01 03:25:05;;;;;;;18.33;11.07;;;-1.00;93.80;;;;;;3584665;32;20238;-83
2020/12/01 03:27:31;;;;;;;19.47;11.80;;;-1.00;93.30;;;;;;3585959;32;20232;-83
2020/12/01 03:29:58;;;;;;;19.63;11.57;;;-0.90;93.20;;;;;;3580222;40;20269;-83
2020/12/01 03:32:24;;;;;;;20.47;12.10;;;-0.80;92.50;;;;;;3579595;40;20367;-83
2020/12/01 03:34:52;;;;;;;18.33;11.43;;;-0.90;92.70;;;;;;3580623;32;20814;-83
2020/12/01 03:37:19;;;;;;;16.67;11.10;;;-0.90;92.80;;;;;;3582072;32;20244;-83
2020/12/01 03:39:45;;;;;;;19.50;11.50;;;-1.00;92.80;;;;;;3579857;32;20241;-83
2020/12/01 03:42:11;;;;;;;18.53;11.87;;;-1.20;93.00;;;;;;3579791;32;20607;-83
2020/12/01 03:44:38;;;;;;;19.00;11.87;;;-1.20;93.60;;;;;;3579434;32;20331;-83
2020/12/01 03:47:04;;;;;;;20.00;12.10;;;-1.10;93.30;;;;;;3581385;40;20272;-82
2020/12/01 03:49:30;;;;;;;18.90;11.50;;;-1.00;93.60;;;;;;3579340;32;20347;-83
2020/12/01 03:51:58;;;;;;;21.37;11.67;;;-0.80;92.80;;;;;;3581418;40;20771;-83
2020/12/01 03:54:24;;;;;;;15.73;10.90;;;-0.80;92.60;;;;;;3579528;32;20300;-83
2020/12/01 03:56:51;;;;;;;20.37;11.77;;;-0.70;92.00;;;;;;3579270;32;20256;-83
2020/12/01 04:01:45;;;;;;;18.07;11.57;;;-0.70;91.90;;;;;;3585271;40;20272;-83
2020/12/01 04:04:11;;;;;;;17.80;11.50;;;-0.60;91.90;;;;;;3591539;32;20738;-83
2020/12/01 04:06:37;;;;;;;18.43;10.87;;;-0.60;91.80;;;;;;3589100;32;20272;-83
2020/12/01 04:09:05;;;;;;;17.77;11.43;;;-0.60;91.60;;;;;;3589427;32;20318;-83
2020/12/01 04:11:31;;;;;;;18.13;10.73;;;-0.60;91.80;;;;;;3621323;32;20272;-83
2020/12/01 04:13:58;;;;;;;15.90;10.93;;;-0.60;91.70;;;;;;3578307;32;20243;-83
2020/12/01 04:16:24;;;;;;;18.83;11.47;;;-0.60;91.80;;;;;;3581527;32;20249;-83
2020/12/01 04:18:50;;;;;;;17.13;11.17;;;-0.60;92.00;;;;;;3578975;40;20241;-83
2020/12/01 04:21:17;;;;;;;18.30;11.83;;;-0.60;92.20;;;;;;3578957;32;20237;-83
2020/12/01 04:23:44;;;;;;;18.13;11.40;;;-0.60;91.80;;;;;;3578425;32;20735;-83
2020/12/01 04:26:11;;;;;;;18.20;11.63;;;-0.70;91.40;;;;;;3581261;40;20253;-83
2020/12/01 04:28:38;;;;;;;17.53;11.03;;;-0.60;91.60;;;;;;3579659;32;20250;-82
2020/12/01 04:31:04;;;;;;;19.07;11.10;;;-0.60;91.60;;;;;;3579749;32;20234;-83
2020/12/01 04:33:30;;;;;;;18.27;11.73;;;-0.80;91.30;;;;;;3579245;40;20739;-83
2020/12/01 04:35:57;;;;;;;17.63;11.20;;;-0.70;92.30;;;;;;3579167;40;20233;-83
2020/12/01 04:38:23;;;;;;;19.30;11.90;;;-0.60;91.80;;;;;;3579448;32;20252;-83
2020/12/01 04:40:50;;;;;;;18.40;11.77;;;-0.60;91.20;;;;;;3579389;40;20268;-83
2020/12/01 04:43:30;;;;;;;19.80;11.97;;;-0.60;91.30;;;;;;3578911;32;20252;-83
2020/12/01 04:45:56;;;;;;;18.40;10.83;;;-0.60;91.20;;;;;;3589960;32;20226;-83
2020/12/01 04:48:32;;;;;;;18.67;11.13;;;-0.60;91.60;;;;;;3588585;40;20255;-83
2020/12/01 04:51:03;;;;;;;18.47;11.90;;;-0.70;91.00;;;;;;3589172;32;20244;-83
2020/12/01 04:54:01;;;;;;;18.13;11.40;;;-0.70;91.00;;;;;;3589402;40;20251;-83
2020/12/01 04:56:49;;;;;;;18.60;11.60;;;-0.70;91.20;;;;;;3578536;40;21252;-83
2020/12/01 04:59:26;;;;;;;20.23;12.10;;;-0.70;90.90;;;;;;3654580;32;20355;-83
2020/12/01 05:02:29;;;;;;;21.00;11.00;;;-0.70;91.20;;;;;;3579695;40;20248;-86
2020/12/01 05:05:24;;;;;;;16.80;10.27;;;-0.70;91.20;;;;;;3572099;32;20229;-83
2020/12/01 05:08:14;;;;;;;19.77;11.30;;;-0.60;90.70;;;;;;3568650;40;20336;-84
2020/12/01 05:10:45;;;;;;;16.17;10.37;;;-0.60;90.70;;;;;;3569881;40;20294;-83
2020/12/01 05:13:20;;;;;;;15.67;9.90;;;-0.60;90.80;;;;;;3571269;32;20273;-83
2020/12/01 05:15:51;;;;;;;17.67;10.47;;;-0.60;90.40;;;;;;3569574;32;20240;-83
2020/12/01 05:18:21;;;;;;;17.53;10.43;;;-0.70;90.50;;;;;;3571031;40;20234;-83
2020/12/01 05:20:49;;;;;;;15.07;10.50;;;-0.60;90.90;;;;;;3579642;32;20636;-83
2020/12/01 05:23:21;;;;;;;15.80;10.47;;;-0.60;90.70;;;;;;3568903;32;20248;-83
2020/12/01 05:25:58;;;;;;;16.43;10.10;;;-0.60;90.80;;;;;;3569897;32;20263;-83
2020/12/01 05:28:24;;;;;;;15.47;9.13;;;-0.60;90.40;;;;;;3579007;32;20255;-83
2020/12/01 05:31:00;;;;;;;15.43;10.03;;;-0.70;90.00;;;;;;3580776;32;20605;-83
2020/12/01 05:33:27;;;;;;;15.37;9.70;;;-0.60;89.70;;;;;;3571390;32;20246;-83
2020/12/01 05:39:27;;;;;;;14.67;10.13;;;-0.60;89.10;;;;;;5099539;27;20530;-86
2020/12/01 05:42:02;;;;;;;15.17;10.03;;;-0.40;90.20;;;;;;5055266;28;20221;-87
2020/12/01 05:44:30;;;;;;;15.57;9.93;;;-0.30;88.70;;;;;;5046120;28;20802;-87
2020/12/01 05:47:03;;;;;;;14.13;9.67;;;-0.40;87.80;;;;;;5046208;28;20631;-88
2020/12/01 05:49:36;;;;;;;15.53;10.10;;;-0.50;87.20;;;;;;5044096;28;20521;-87
2020/12/01 05:52:05;;;;;;;14.47;9.07;;;-0.50;89.80;;;;;;5052934;28;20203;-87
2020/12/01 05:54:36;;;;;;;14.03;9.27;;;-0.50;88.40;;;;;;5042362;28;20229;-87
2020/12/01 05:57:03;;;;;;;15.13;9.07;;;-0.40;88.30;;;;;;5047866;28;20646;-85
2020/12/01 05:59:30;;;;;;;14.30;8.93;;;-0.40;88.90;;;;;;5040524;28;20234;-85
2020/12/01 06:02:03;;;;;;;16.73;9.73;;;-0.30;89.20;;;;;;5043583;28;20206;-85
2020/12/01 06:04:33;;;;;;;16.63;9.33;;;-0.20;87.80;;;;;;5042479;28;20217;-86
2020/12/01 06:07:13;;;;;;;13.37;9.20;;;-0.20;89.40;;;;;;5064671;28;20215;-90
2020/12/01 06:10:10;;;;;;;13.83;9.30;;;-0.10;88.10;;;;;;5056628;28;20231;-90
2020/12/01 06:13:06;;;;;;;16.17;9.83;;;0.10;88.90;;;;;;5061560;28;20212;-87
2020/12/01 06:15:35;;;;;;;14.47;9.13;;;0.00;86.00;;;;;;5030250;28;20244;-86
2020/12/01 06:18:11;;;;;;;14.63;9.27;;;0.10;87.90;;;;;;5056791;28;20213;-88
2020/12/01 06:20:43;;;;;;;15.37;9.10;;;0.30;87.90;;;;;;5064147;28;20220;-86
2020/12/01 06:23:40;;;;;;;12.97;8.83;;;0.10;85.90;;;;;;5068455;28;20204;-86
2020/12/01 06:26:37;;;;;;;13.17;8.33;;;0.20;87.90;;;;;;5055360;28;20304;-89
2020/12/01 06:29:40;;;;;;;13.27;8.40;;;0.60;90.00;;;;;;5051088;28;20200;-87
2020/12/01 06:32:56;;;;;;;13.07;8.57;;;0.70;89.10;;;;;;5067025;28;20202;-90
2020/12/01 06:35:59;;;;;;;12.57;8.33;;;0.80;87.30;;;;;;5059225;28;20229;-89
2020/12/01 06:38:40;;;;;;;19.57;9.50;;;0.60;85.30;;;;;;5045918;28;20890;-85
2020/12/01 06:41:13;;;;;;;11.67;7.97;;;0.40;86.00;;;;;;5038127;28;20233;-88
2020/12/01 06:43:42;;;;;;;11.90;7.80;;;0.40;89.10;;;;;;5047004;28;20668;-83
2020/12/01 06:46:32;;;;;;;14.20;8.57;;;0.50;89.90;;;;;;5043808;28;20255;-84
2020/12/01 06:49:00;;;;;;;11.97;8.23;;;0.60;88.20;;;;;;5036457;28;20198;-83
2020/12/01 06:51:27;;;;;;;12.57;7.87;;;0.80;87.70;;;;;;5033923;28;20603;-83
2020/12/01 06:54:04;;;;;;;12.17;8.40;;;0.90;86.40;;;;;;5031632;28;20199;-85
2020/12/01 06:56:30;;;;;;;17.93;9.10;;;0.90;86.40;;;;;;5034405;28;20215;-84
2020/12/01 06:59:06;;;;;;;12.53;8.97;;;0.80;86.40;;;;;;5038630;28;20226;-81
2020/12/01 07:01:34;;;;;;;13.17;9.30;;;1.00;86.40;;;;;;5050242;28;20220;-83
2020/12/01 07:04:04;;;;;;;12.60;9.60;;;0.90;86.40;;;;;;5051853;28;20198;-85
2020/12/01 07:06:44;;;;;;;13.90;8.97;;;1.00;86.40;;;;;;5042168;28;20217;-82
2020/12/01 07:09:13;;;;;;;16.40;9.67;;;1.30;89.80;;;;;;5029914;28;20269;-85
2020/12/01 07:11:59;;;;;;;11.93;8.20;;;1.40;86.00;;;;;;5035346;28;20202;-82
2020/12/01 07:14:35;;;;;;;11.37;7.83;;;1.30;86.60;;;;;;5035175;28;20224;-82
2020/12/01 07:17:15;;;;;;;11.60;7.70;;;1.30;87.30;;;;;;5051828;28;20554;-84
2020/12/01 07:19:44;;;;;;;11.67;7.80;;;1.20;86.60;;;;;;5044406;28;20711;-81
2020/12/01 07:22:27;;;;;;;11.80;7.90;;;1.50;90.30;;;;;;5036001;28;20217;-83
2020/12/01 07:24:56;;;;;;;12.13;8.33;;;1.60;90.00;;;;;;5028682;28;20214;-84
2020/12/01 07:27:28;;;;;;;13.30;7.37;;;1.60;86.90;;;;;;5036217;28;20209;-84
2020/12/01 07:30:07;;;;;;;11.43;7.80;;;1.40;84.50;;;;;;5044319;28;20218;-83
2020/12/01 07:32:48;;;;;;;11.50;7.30;;;1.30;86.70;;;;;;5054188;28;20669;-82
2020/12/01 07:35:17;;;;;;;12.70;7.07;;;1.10;86.60;;;;;;5049650;28;20302;-84
2020/12/01 07:37:58;;;;;;;10.80;7.20;;;1.10;89.50;;;;;;5061439;28;20225;-85
2020/12/01 07:40:28;;;;;;;12.10;7.43;;;1.10;86.50;;;;;;5048129;28;20216;-86
2020/12/01 07:43:01;;;;;;;11.60;7.87;;;1.00;86.40;;;;;;5034805;28;20292;-84
2020/12/01 07:45:29;;;;;;;11.43;7.20;;;1.20;89.10;;;;;;5027309;28;20295;-84
2020/12/01 07:47:59;;;;;;;10.70;7.30;;;1.00;88.50;;;;;;5032024;28;20214;-81
2020/12/01 07:50:26;;;;;;;12.10;7.43;;;1.00;87.20;;;;;;5029157;28;20223;-80
2020/12/01 07:53:00;;;;;;;12.77;7.20;;;0.90;88.70;;;;;;5030599;28;20644;-84
2020/12/01 07:55:34;;;;;;;13.30;7.43;;;0.70;89.50;;;;;;5045678;28;20226;-83
2020/12/01 07:58:02;;;;;;;14.90;7.73;;;0.90;90.30;;;;;;5051817;28;20232;-84
2020/12/01 08:00:31;;;;;;;16.83;8.20;;;1.10;91.00;;;;;;5059016;28;20320;-85
2020/12/01 08:03:04;;;;;;;13.77;7.90;;;1.00;89.70;;;;;;5048697;28;20198;-85
2020/12/01 08:05:30;;;;;;;11.63;7.47;;;1.00;91.10;;;;;;5036132;28;20234;-87
2020/12/01 08:07:58;;;;;;;11.70;6.77;;;1.20;91.60;;;;;;5032820;28;20322;-86
2020/12/01 08:10:26;;;;;;;13.80;6.70;;;1.20;90.10;;;;;;5032404;28;20228;-85
2020/12/01 08:13:02;;;;;;;16.27;7.73;;;1.20;90.60;;;;;;5036068;28;20207;-85
2020/12/01 08:15:30;;;;;;;14.43;7.03;;;1.30;90.40;;;;;;5035532;28;20235;-84
2020/12/01 08:17:56;;;;;;;11.90;6.83;;;1.30;90.60;;;;;;5038076;28;20796;-84
2020/12/01 08:20:26;;;;;;;11.60;7.20;;;1.20;90.50;;;;;;5039430;28;20237;-83
2020/12/01 08:23:00;;;;;;;12.93;6.67;;;1.00;90.90;;;;;;5045663;28;20196;-82
2020/12/01 08:25:29;;;;;;;13.17;6.30;;;1.00;91.50;;;;;;5036280;28;20747;-81
2020/12/01 08:28:05;;;;;;;10.93;6.90;;;1.30;91.90;;;;;;5039662;28;20204;-84
2020/12/01 08:30:52;;;;;;;11.93;6.33;;;1.40;91.50;;;;;;5041745;28;20736;-83
2020/12/01 08:33:29;;;;;;;10.77;6.60;;;1.50;91.20;;;;;;5044023;28;20218;-83
2020/12/01 08:36:02;;;;;;;11.70;6.77;;;1.50;91.00;;;;;;5030580;28;20219;-84
2020/12/01 08:38:55;;;;;;;11.93;6.70;;;1.50;91.50;;;;;;5032602;28;20227;-82
2020/12/01 08:41:37;;;;;;;10.23;6.80;;;1.60;91.70;;;;;;5030382;28;20240;-85
2020/12/01 08:44:14;;;;;;;13.07;7.03;;;1.80;91.10;;;;;;5031572;28;20202;-85
2020/12/01 08:46:44;;;;;;;20.23;7.47;;;1.70;90.60;;;;;;5035991;28;20226;-86
2020/12/01 08:49:23;;;;;;;9.90;6.90;;;1.90;91.30;;;;;;5035405;28;20216;-83
2020/12/01 08:51:53;;;;;;;13.70;7.07;;;2.00;91.30;;;;;;5026244;28;20194;-83
2020/12/01 08:54:22;;;;;;;12.60;7.07;;;2.10;91.30;;;;;;5029984;28;20202;-83
2020/12/01 08:57:13;;;;;;;13.60;6.63;;;2.20;91.30;;;;;;5027528;28;20213;-83
2020/12/01 08:59:45;;;;;;;10.53;6.50;;;2.00;91.80;;;;;;5026548;28;20929;-83
2020/12/01 09:02:13;;;;;;;11.80;7.47;;;1.90;91.70;;;;;;5029242;28;20206;-84
2020/12/01 09:04:40;;;;;;;10.20;6.97;;;2.00;91.50;;;;;;5028208;28;20226;-83
2020/12/01 09:07:21;;;;;;;11.17;6.73;;;2.10;91.80;;;;;;5031121;28;20523;-85
2020/12/01 09:09:49;;;;;;;9.80;6.90;;;2.30;91.70;;;;;;5035738;28;20221;-85
2020/12/01 09:12:24;;;;;;;11.97;7.10;;;2.20;91.20;;;;;;5047006;28;20225;-88
2020/12/01 09:17:41;;;;;;;9.80;7.10;;;2.20;91.50;;;;;;5027337;28;20729;-85
2020/12/01 09:20:29;;;;;;;14.33;6.90;;;2.30;91.40;;;;;;5027044;28;20230;-85
2020/12/01 09:23:07;;;;;;;9.87;5.63;;;2.10;91.00;;;;;;5031360;28;20265;-87
2020/12/01 09:25:36;;;;;;;9.03;5.67;;;2.30;91.90;;;;;;5048321;28;20691;-85
2020/12/01 09:28:09;;;;;;;10.87;5.53;;;2.40;91.30;;;;;;5059271;28;20206;-84
2020/12/01 09:30:37;;;;;;;8.03;5.27;;;2.70;90.40;;;;;;5057693;28;20233;-86
2020/12/01 09:33:05;;;;;;;7.67;5.37;;;2.90;90.50;;;;;;5059402;28;20202;-86
2020/12/01 09:35:32;;;;;;;10.53;5.40;;;2.90;89.00;;;;;;5053674;28;20228;-87
2020/12/01 09:37:59;;;;;;;9.27;4.90;;;3.00;88.90;;;;;;5059293;28;20240;-84
2020/12/01 09:40:27;;;;;;;8.63;4.90;;;3.00;87.70;;;;;;5055629;28;20228;-87
2020/12/01 09:42:58;;;;;;;10.10;5.13;;;2.50;87.40;;;;;;5059136;28;20217;-88
2020/12/01 09:45:26;;;;;;;11.60;5.33;;;2.40;90.20;;;;;;5047920;28;20225;-88
2020/12/01 09:47:57;;;;;;;7.97;5.23;;;2.20;89.90;;;;;;5061736;28;20212;-87
2020/12/01 09:50:26;;;;;;;7.47;4.90;;;2.10;89.70;;;;;;5060102;28;20229;-86
2020/12/01 09:53:01;;;;;;;7.70;4.63;;;2.30;90.70;;;;;;5047300;28;20283;-88
2020/12/01 09:55:46;;;;;;;7.43;4.30;;;2.20;90.50;;;;;;5036603;28;20225;-86
2020/12/01 09:58:24;;;;;;;10.53;4.87;;;2.50;90.10;;;;;;5024534;28;20223;-86
2020/12/01 10:09:14;;;;;;;6.27;4.20;;;3.10;88.50;;;;;;5029724;28;20436;-85
2020/12/01 10:12:10;;;;;;;8.20;4.30;;;3.10;87.80;;;;;;5018065;28;20206;-85
2020/12/01 10:25:59;;;;;;;10.13;4.30;;;3.20;89.30;;;;;;5038471;28;20218;-87
2020/12/01 10:34:43;;;;;;;10.00;5.20;;;3.00;89.70;;;;;;4965484;28;20204;-85
2020/12/01 10:37:09;;;;;;;6.73;4.40;;;3.00;89.80;;;;;;4964210;28;20247;-87
2020/12/01 10:39:37;;;;;;;6.17;3.73;;;3.20;90.60;;;;;;5003332;28;20466;-88
2020/12/01 10:42:06;;;;;;;13.37;4.90;;;3.60;88.10;;;;;;5036831;28;20211;-87
2020/12/01 10:44:33;;;;;;;9.37;4.50;;;3.70;88.20;;;;;;5033443;28;20214;-86
2020/12/01 10:46:59;;;;;;;7.23;4.87;;;4.00;87.30;;;;;;5037708;28;20659;-86
2020/12/01 10:49:25;;;;;;;8.33;4.53;;;3.90;86.10;;;;;;5037559;28;20940;-90
2020/12/01 10:51:52;;;;;;;7.93;4.97;;;4.00;88.40;;;;;;5029379;28;20199;-88
2020/12/01 10:54:19;;;;;;;7.47;4.33;;;4.20;85.10;;;;;;5047392;28;20578;-87
2020/12/01 10:56:49;;;;;;;6.43;4.43;;;4.20;84.90;;;;;;5052455;28;20205;-88
2020/12/01 10:59:15;;;;;;;7.87;4.97;;;4.00;85.70;;;;;;5044348;28;20238;-87
2020/12/01 11:01:42;;;;;;;6.53;4.87;;;4.00;87.00;;;;;;5045598;28;20201;-90
2020/12/01 11:04:09;;;;;;;10.63;4.63;;;4.10;87.40;;;;;;5033673;28;20198;-88
2020/12/01 11:06:36;;;;;;;11.07;4.67;;;4.40;88.60;;;;;;5038251;28;20202;-85
2020/12/01 11:09:05;;;;;;;11.50;4.80;;;4.60;88.00;;;;;;5032665;28;20718;-87
2020/12/01 11:11:31;;;;;;;7.50;4.60;;;4.70;85.90;;;;;;5033573;28;20229;-89
2020/12/01 11:13:58;;;;;;;6.47;4.73;;;4.60;85.00;;;;;;5037952;28;20209;-92
2020/12/01 11:16:25;;;;;;;7.50;4.77;;;4.50;85.50;;;;;;5037357;28;20221;-91
2020/12/01 11:18:52;;;;;;;10.03;4.80;;;4.60;87.00;;;;;;5038306;28;20227;-88
2020/12/01 11:21:18;;;;;;;9.07;4.87;;;4.60;85.50;;;;;;5033611;28;20343;-87
2020/12/01 11:23:44;;;;;;;9.63;4.57;;;4.40;85.50;;;;;;5042449;28;20202;-86
2020/12/01 11:26:13;;;;;;;12.10;5.20;;;4.40;85.80;;;;;;5040884;28;20799;-86
2020/12/01 11:28:39;;;;;;;9.87;5.60;;;4.00;87.80;;;;;;5033735;28;20211;-86
2020/12/01 11:31:07;;;;;;;8.30;5.23;;;3.90;88.30;;;;;;5035894;28;20210;-87
2020/12/01 11:33:33;;;;;;;10.03;4.20;;;3.90;89.40;;;;;;5041594;28;20195;-86
2020/12/01 11:36:07;;;;;;;7.10;3.73;;;3.90;89.90;;;;;;5057687;28;20232;-88
2020/12/01 11:38:33;;;;;;;7.07;3.90;;;3.90;88.30;;;;;;5058829;28;20225;-86
2020/12/01 11:41:09;;;;;;;6.67;4.00;;;4.20;90.10;;;;;;5056940;28;20234;-85
2020/12/01 11:43:36;;;;;;;11.20;4.67;;;4.30;88.50;;;;;;5058655;28;20201;-87
2020/12/01 11:46:04;;;;;;;8.57;4.17;;;4.40;88.60;;;;;;5057667;28;20244;-87
2020/12/01 11:48:31;;;;;;;10.40;4.63;;;4.50;87.30;;;;;;5051224;28;20205;-87
2020/12/01 11:50:58;;;;;;;4.90;3.77;;;4.40;88.60;;;;;;5074245;28;20266;-87
2020/12/01 11:53:25;;;;;;;5.83;4.30;;;4.40;88.60;;;;;;5057142;28;20231;-85
2020/12/01 11:56:12;;;;;;;6.20;3.90;;;4.60;88.70;;;;;;5062292;28;20227;-86
2020/12/01 11:58:40;;;;;;;6.23;3.73;;;4.90;87.10;;;;;;5057077;28;20251;-85
2020/12/01 12:01:08;;;;;;;5.67;3.80;;;5.20;86.70;;;;;;5056780;28;20228;-89
2020/12/01 12:03:35;;;;;;;5.93;3.60;;;5.40;83.10;;;;;;5049819;28;20197;-88
2020/12/01 12:06:02;;;;;;;6.77;3.73;;;5.40;82.90;;;;;;5054560;28;20218;-90
2020/12/01 12:08:28;;;;;;;4.77;3.60;;;5.40;84.40;;;;;;5050470;28;20216;-88
2020/12/01 12:10:55;;;;;;;8.17;4.47;;;5.70;83.20;;;;;;5047336;28;20226;-88
2020/12/01 12:13:21;;;;;;;5.73;4.17;;;5.50;82.10;;;;;;5053500;28;20256;-87
2020/12/01 12:15:48;;;;;;;6.67;4.10;;;5.30;83.10;;;;;;5053578;28;20672;-89
2020/12/01 12:18:14;;;;;;;6.27;4.23;;;5.10;84.10;;;;;;5050199;28;20692;-89
2020/12/01 12:20:47;;;;;;;6.73;4.27;;;4.90;85.30;;;;;;5055906;28;20218;-91
2020/12/01 12:23:14;;;;;;;6.40;3.87;;;4.80;86.60;;;;;;5051795;28;21486;-89
2020/12/01 12:25:41;;;;;;;8.70;4.33;;;4.60;88.40;;;;;;5055804;28;20215;-91
2020/12/01 12:28:07;;;;;;;8.43;4.43;;;4.60;88.70;;;;;;5049171;28;20230;-90
2020/12/01 12:30:33;;;;;;;6.63;3.43;;;4.60;90.00;;;;;;5053155;28;20228;-89
2020/12/01 12:33:04;;;;;;;4.60;3.50;;;5.00;89.00;;;;;;5054296;28;20212;-89
2020/12/01 12:35:31;;;;;;;5.23;3.97;;;5.10;89.00;;;;;;5052163;28;20225;-90
2020/12/01 12:37:58;;;;;;;7.23;4.50;;;4.90;86.80;;;;;;5051523;28;20213;-89
2020/12/01 12:40:24;;;;;;;5.43;3.60;;;4.60;88.50;;;;;;5053359;28;20576;-90
2020/12/01 12:42:51;;;;;;;6.97;3.70;;;4.30;88.50;;;;;;5065972;28;20204;-88
2020/12/01 12:45:17;;;;;;;5.87;3.80;;;4.00;90.20;;;;;;5052627;28;20695;-85
2020/12/01 12:47:44;;;;;;;6.37;4.03;;;4.00;90.80;;;;;;5049696;28;20555;-85
2020/12/01 12:50:11;;;;;;;6.27;4.23;;;3.90;91.20;;;;;;5051786;28;20715;-88
2020/12/01 12:52:37;;;;;;;6.67;3.90;;;4.10;91.30;;;;;;5054660;28;20669;-88
2020/12/01 12:55:05;;;;;;;9.60;3.60;;;4.00;91.60;;;;;;5049300;28;20209;-87
2020/12/01 12:57:32;;;;;;;4.87;3.63;;;4.20;91.70;;;;;;5051317;28;20208;-89
2020/12/01 12:59:58;;;;;;;6.17;3.63;;;4.40;91.30;;;;;;5049263;28;20241;-84
2020/12/01 13:02:25;;;;;;;4.77;3.13;;;4.50;91.10;;;;;;5051360;28;20661;-86
2020/12/01 13:04:53;;;;;;;5.00;3.50;;;4.60;91.00;;;;;;5046051;28;20221;-89
2020/12/01 13:07:20;;;;;;;5.77;3.40;;;4.70;91.00;;;;;;5050088;28;20210;-86
2020/12/01 13:09:46;;;;;;;5.83;3.93;;;4.60;90.10;;;;;;5051346;28;20227;-87
2020/12/01 13:12:13;;;;;;;7.83;3.80;;;4.50;90.50;;;;;;5033063;28;20209;-87
2020/12/01 13:14:40;;;;;;;5.77;4.00;;;4.40;91.30;;;;;;5033479;28;20260;-86
2020/12/01 13:17:06;;;;;;;6.00;4.53;;;4.30;90.70;;;;;;5038919;28;20202;-86
2020/12/01 13:19:33;;;;;;;4.87;3.70;;;4.30;91.20;;;;;;5048260;28;20232;-88
2020/12/01 13:22:05;;;;;;;6.93;3.60;;;4.10;91.30;;;;;;5054019;28;20201;-87
2020/12/01 13:24:32;;;;;;;5.20;3.90;;;4.10;92.20;;;;;;5038833;28;20190;-88
2020/12/01 13:26:58;;;;;;;5.97;4.37;;;4.10;91.60;;;;;;5038242;28;20197;-88
2020/12/01 13:30:06;;;;;;;5.20;3.60;;;4.20;92.20;;;;;;5042816;28;20239;-87
2020/12/01 13:32:33;;;;;;;10.97;6.23;;;4.40;91.50;;;;;;5034944;28;20212;-87
2020/12/01 13:35:00;;;;;;;15.90;8.70;;;4.40;91.50;;;;;;5039069;28;20210;-87
2020/12/01 13:37:26;;;;;;;11.90;7.23;;;4.50;91.50;;;;;;5034682;28;20226;-88
2020/12/01 13:39:52;;;;;;;13.40;6.67;;;4.50;91.00;;;;;;5037819;28;20218;-87